Manaus, Manaus Eduardo Gomes International Airport (SBEG)

NameManaus Eduardo Gomes International Airport
CityManaus
CountryBrazil
ICAOSBEG
IATAMAO
Altitude264 feet
CoordinatesGoogle Map
Live Air TrafficLiveATC.net
METARSBEG 230700Z 32001KT CAVOK 24/23 Q1013
2024-07-23 07:00:00 Wind: Northwest (320°) 0.51 m/s - Visibility: > 10000 m - Weather: CAVOK - Temperature: 24 °C - Dew point: 23 °C - Humidity: 94.2% - Pressure: 1013 hPa

Sorry, no flights used the airport in this database.